Nearby METAR Reports

 

EGPN - Dundee/Riverside, United Kingdom
Distance from station: SSE 10km
Updated: 28/09/2021 20:50
NOT Current
Few Clouds
Few Clouds
 Wind from calm
Wind: Calm
Temperature: 10°C
Dew Point: 9°C
Humidity: 94%
Barometer: 1006 hPa
Clouds: Few Clouds
Visibility: 6 miles , 10 km
Cloud details: Few Clouds 762 m
2021/09/28 19:50 EGPN 281950Z 00000KT 9999 FEW025 10/09 Q1006
EGQL - Leuchars Raf, United Kingdom
Distance from station: SE 21km
Updated: 29/09/2021 02:50
Clear
Clear
 Wind from W
Wind: W 8 mph , 13 km/h
Temperature: 8°C
Wind Chill: 6°C
Dew Point: 6°C
Humidity: 87%
Barometer: 1008 hPa
Summary: Clear
Visibility: greater than 7 miles , 10 km
2021/09/29 01:50 EGQL 290150Z 27007KT CAVOK 08/06 Q1008 RMK
 
EGPH - Edinburgh Airpor, United Kingdom
Distance from station: SSW 67km
Updated: 29/09/2021 02:50
Few Clouds
Few Clouds
 Wind from W
Wind: W 7 mph , 11 km/h
Temperature: 6°C
Wind Chill: 4°C
Dew Point: 5°C
Humidity: 93%
Barometer: 1009 hPa
Clouds: Few Clouds
Visibility: 6 miles , 10 km
Cloud details: Few Clouds 1189 m
2021/09/29 01:50 EGPH 290150Z 26006KT 9999 FEW039 06/05 Q1009
EGPD - Aberdeen/Dyce, United Kingdom
Distance from station: NE 91km
Updated: 29/09/2021 02:50
Clear
Clear
 Wind from varies
Wind: varies 2 mph , 4 km/h
Temperature: 7°C
Dew Point: 6°C
Humidity: 93%
Barometer: 1007 hPa
Clouds: Clear
Visibility: 6 miles , 10 km
2021/09/29 01:50 EGPD 290150Z AUTO VRB02KT 9999 NCD 07/06 Q1007 NOSIG
 
EGPF - Glasgow Airport, United Kingdom
Distance from station: SW 111km
Updated: 29/09/2021 02:50
Mostly cloudy
Mostly cloudy
 Wind from varies
Wind: varies 3 mph , 6 km/h
Temperature: 5°C
Dew Point: 4°C
Humidity: 93%
Barometer: 1009 hPa
Clouds: Mostly cloudy
Visibility: 6 miles , 10 km
Cloud details: Partly cloudy 914 m
Mostly cloudy 1250 m
2021/09/29 01:50 EGPF 290150Z AUTO VRB03KT 9999 SCT030 BKN041 05/04 Q1009
EGPE - Inverness/Dalcro, United Kingdom
Distance from station: NNW 124km
Updated: 29/09/2021 02:50
Clear
Clear
 Wind from SW
Wind: SW 3 mph , 6 km/h
Temperature: 5°C
Dew Point: 4°C
Humidity: 93%
Barometer: 1008 hPa
Summary: Clear
Visibility: greater than 7 miles , 10 km
2021/09/29 01:50 EGPE 290150Z 22003KT CAVOK 05/04 Q1008
 
EGQK - Kinloss Raf, United Kingdom
Distance from station: NNW 128km
Updated: 29/09/2021 02:50
Few Clouds
Few Clouds
 Wind from SSW
Wind: SSW 8 mph , 13 km/h
Temperature: 7°C
Wind Chill: 5°C
Dew Point: 4°C
Humidity: 81%
Barometer: 1008 hPa
Clouds: Few Clouds
Visibility: 6 miles , 10 km
Cloud details: Few Clouds 6706 m
2021/09/29 01:50 EGQK 290150Z AUTO 21007KT 9999 FEW220/// 07/04 Q1008
EGQS - Lossiemouth Raf, United Kingdom
Distance from station: N 133km
Updated: 29/09/2021 02:50
Clear
Clear
 Wind from SSW
Wind: SSW 5 mph , 7 km/h
Temperature: 6°C
Wind Chill: 4°C
Dew Point: 4°C
Humidity: 87%
Barometer: 1007 hPa
Summary: Clear
Visibility: greater than 7 miles , 10 km
2021/09/29 01:50 EGQS 290150Z 20004KT CAVOK 06/04 Q1007 RMK BLU
 
EGPK - Prestwick(Civ/Na, United Kingdom
Distance from station: SW 148km
Updated: 29/09/2021 02:50
Partly cloudy
Partly cloudy
 Wind from W
Wind: W 12 mph , 19 km/h
Temperature: 10°C
Wind Chill: 7°C
Dew Point: 7°C
Humidity: 82%
Barometer: 1009 hPa
Clouds: Partly cloudy
Visibility: 6 miles , 10 km
2021/09/29 01:50 EGPK 290150Z 28010KT 9999 R30/1400 NSC 10/07 Q1009
EGQA - Tain Range (saws, United Kingdom
Distance from station: NNW 154km
Updated: 28/09/2021 20:50
NOT Current
Partly cloudy
Partly cloudy
 Wind from WSW
Wind: WSW 9 mph , 15 km/h
Clouds: Partly cloudy
Visibility: 6 miles , 10 km
Cloud details: Partly cloudy 792 m
2021/09/28 19:50 EGQA 281950Z 25008KT 9999 SCT026 10/// Q1006 RMK BLU
 
EGQM - Boulmer, United Kingdom
Distance from station: SE 154km
Updated: 29/09/2021 02:50
Mostly cloudy
Mostly cloudy
 Wind from W
Wind: W 12 mph , 19 km/h
Temperature: 10°C
Wind Chill: 7°C
Dew Point: 7°C
Humidity: 82%
Barometer: 1008 hPa
Clouds: Mostly cloudy
Visibility: 6 miles , 10 km
Cloud details: Mostly cloudy 1829 m
Mostly cloudy 4877 m
2021/09/29 01:50 EGQM 290150Z AUTO 28010KT 9999 BKN060/// BKN160/// 10/07 Q1008